Terminal Aerodrome Forecast
Issued by NWS

Current Version | Previous Version | Graphics & Text | Print | Product List | Glossary On
Versions: 1 2 3 4 5 6 7 8 9 10 11 12 13 14 15 16
000
FTUS41 KPBZ 301723
TAFHLG
TAF
KHLG 301723Z 3018/0118 34004KT P6SM VCSH BKN050
     FM302100 35010KT P6SM -SHRA OVC030
     FM010000 36006KT P6SM -SHRA BKN025
     FM010600 01006KT P6SM BKN020=

USA.gov is the U.S. government's official web portal to all federal, state and local government web resources and services.